sensor_id;sensor_type;location;lat;lon;timestamp;P1;durP1;ratioP1;P2;durP2;ratioP2
46391;SDS011;32098;49.448;7.904;2023-07-29T00:01:37;5.32;;;1.60;;
46391;SDS011;32098;49.448;7.904;2023-07-29T00:04:07;2.35;;;1.40;;
46391;SDS011;32098;49.448;7.904;2023-07-29T00:06:37;2.15;;;1.42;;
46391;SDS011;32098;49.448;7.904;2023-07-29T00:09:04;2.50;;;1.83;;
46391;SDS011;32098;49.448;7.904;2023-07-29T00:11:30;2.05;;;1.50;;
46391;SDS011;32098;49.448;7.904;2023-07-29T00:14:00;1.50;;;1.40;;
46391;SDS011;32098;49.448;7.904;2023-07-29T00:16:27;1.58;;;1.48;;
46391;SDS011;32098;49.448;7.904;2023-07-29T00:18:54;2.53;;;1.80;;
46391;SDS011;32098;49.448;7.904;2023-07-29T00:21:20;2.15;;;1.95;;
46391;SDS011;32098;49.448;7.904;2023-07-29T00:23:47;2.10;;;1.90;;
46391;SDS011;32098;49.448;7.904;2023-07-29T00:26:14;2.40;;;1.73;;
46391;SDS011;32098;49.448;7.904;2023-07-29T00:28:40;2.05;;;1.95;;
46391;SDS011;32098;49.448;7.904;2023-07-29T00:31:07;3.55;;;1.92;;
46391;SDS011;32098;49.448;7.904;2023-07-29T00:33:34;2.45;;;1.60;;
46391;SDS011;32098;49.448;7.904;2023-07-29T00:36:00;2.08;;;1.70;;
46391;SDS011;32098;49.448;7.904;2023-07-29T00:38:29;2.13;;;1.65;;
46391;SDS011;32098;49.448;7.904;2023-07-29T00:41:00;2.15;;;1.40;;
46391;SDS011;32098;49.448;7.904;2023-07-29T00:43:28;4.72;;;1.40;;
46391;SDS011;32098;49.448;7.904;2023-07-29T00:45:55;2.03;;;1.63;;
46391;SDS011;32098;49.448;7.904;2023-07-29T00:48:24;2.33;;;1.80;;
46391;SDS011;32098;49.448;7.904;2023-07-29T00:50:51;2.05;;;1.85;;
46391;SDS011;32098;49.448;7.904;2023-07-29T00:53:18;2.75;;;1.50;;
46391;SDS011;32098;49.448;7.904;2023-07-29T00:55:45;5.10;;;1.63;;
46391;SDS011;32098;49.448;7.904;2023-07-29T00:58:11;1.60;;;1.50;;
46391;SDS011;32098;49.448;7.904;2023-07-29T01:00:38;1.40;;;1.15;;
46391;SDS011;32098;49.448;7.904;2023-07-29T01:03:05;2.88;;;1.42;;
46391;SDS011;32098;49.448;7.904;2023-07-29T01:05:35;4.15;;;1.45;;
46391;SDS011;32098;49.448;7.904;2023-07-29T01:08:11;1.30;;;1.20;;
46391;SDS011;32098;49.448;7.904;2023-07-29T01:14:10;1.50;;;1.30;;
46391;SDS011;32098;49.448;7.904;2023-07-29T01:16:44;2.30;;;1.52;;
46391;SDS011;32098;49.448;7.904;2023-07-29T01:19:42;4.20;;;1.60;;
46391;SDS011;32098;49.448;7.904;2023-07-29T01:22:20;1.40;;;1.30;;
46391;SDS011;32098;49.448;7.904;2023-07-29T01:24:47;1.50;;;1.40;;
46391;SDS011;32098;49.448;7.904;2023-07-29T01:27:14;2.25;;;1.20;;
46391;SDS011;32098;49.448;7.904;2023-07-29T01:29:41;5.03;;;1.30;;
46391;SDS011;32098;49.448;7.904;2023-07-29T01:32:10;2.38;;;1.45;;
46391;SDS011;32098;49.448;7.904;2023-07-29T01:34:45;2.75;;;1.80;;
46391;SDS011;32098;49.448;7.904;2023-07-29T01:37:19;2.20;;;1.50;;
46391;SDS011;32098;49.448;7.904;2023-07-29T01:39:49;2.45;;;1.45;;
46391;SDS011;32098;49.448;7.904;2023-07-29T01:42:17;2.00;;;1.30;;
46391;SDS011;32098;49.448;7.904;2023-07-29T01:44:44;1.40;;;1.30;;
46391;SDS011;32098;49.448;7.904;2023-07-29T01:47:10;1.55;;;1.40;;
46391;SDS011;32098;49.448;7.904;2023-07-29T01:49:37;2.35;;;1.30;;
46391;SDS011;32098;49.448;7.904;2023-07-29T01:52:04;3.10;;;1.63;;
46391;SDS011;32098;49.448;7.904;2023-07-29T01:54:31;3.72;;;1.63;;
46391;SDS011;32098;49.448;7.904;2023-07-29T01:56:57;1.75;;;1.65;;
46391;SDS011;32098;49.448;7.904;2023-07-29T01:59:24;1.92;;;1.40;;
46391;SDS011;32098;49.448;7.904;2023-07-29T02:01:50;2.25;;;1.60;;
46391;SDS011;32098;49.448;7.904;2023-07-29T02:04:17;3.15;;;1.50;;
46391;SDS011;32098;49.448;7.904;2023-07-29T02:06:44;3.65;;;1.40;;
46391;SDS011;32098;49.448;7.904;2023-07-29T02:09:10;2.75;;;1.60;;
46391;SDS011;32098;49.448;7.904;2023-07-29T02:11:37;1.30;;;1.15;;
46391;SDS011;32098;49.448;7.904;2023-07-29T02:14:03;2.75;;;1.50;;
46391;SDS011;32098;49.448;7.904;2023-07-29T02:16:30;1.40;;;1.30;;
46391;SDS011;32098;49.448;7.904;2023-07-29T02:18:58;2.63;;;1.40;;
46391;SDS011;32098;49.448;7.904;2023-07-29T02:21:25;2.03;;;1.42;;
46391;SDS011;32098;49.448;7.904;2023-07-29T02:23:52;1.40;;;1.30;;
46391;SDS011;32098;49.448;7.904;2023-07-29T02:26:18;3.60;;;1.40;;
46391;SDS011;32098;49.448;7.904;2023-07-29T02:28:45;2.97;;;1.70;;
46391;SDS011;32098;49.448;7.904;2023-07-29T02:31:16;2.92;;;1.70;;
46391;SDS011;32098;49.448;7.904;2023-07-29T02:33:45;1.50;;;1.40;;
46391;SDS011;32098;49.448;7.904;2023-07-29T02:36:12;1.50;;;1.40;;
46391;SDS011;32098;49.448;7.904;2023-07-29T02:38:40;3.50;;;1.63;;
46391;SDS011;32098;49.448;7.904;2023-07-29T02:41:10;1.58;;;1.48;;
46391;SDS011;32098;49.448;7.904;2023-07-29T02:43:38;4.15;;;1.30;;
46391;SDS011;32098;49.448;7.904;2023-07-29T02:46:07;3.40;;;1.77;;
46391;SDS011;32098;49.448;7.904;2023-07-29T02:48:34;1.58;;;1.48;;
46391;SDS011;32098;49.448;7.904;2023-07-29T02:51:00;1.65;;;1.52;;
46391;SDS011;32098;49.448;7.904;2023-07-29T02:53:27;1.63;;;1.50;;
46391;SDS011;32098;49.448;7.904;2023-07-29T02:55:53;1.42;;;1.23;;
46391;SDS011;32098;49.448;7.904;2023-07-29T02:58:20;1.65;;;1.30;;
46391;SDS011;32098;49.448;7.904;2023-07-29T03:00:47;1.90;;;1.55;;
46391;SDS011;32098;49.448;7.904;2023-07-29T03:03:15;2.47;;;1.50;;
46391;SDS011;32098;49.448;7.904;2023-07-29T03:05:42;3.53;;;1.60;;
46391;SDS011;32098;49.448;7.904;2023-07-29T03:08:08;1.73;;;1.60;;
46391;SDS011;32098;49.448;7.904;2023-07-29T03:10:35;2.15;;;1.20;;
46391;SDS011;32098;49.448;7.904;2023-07-29T03:13:02;2.50;;;1.40;;
46391;SDS011;32098;49.448;7.904;2023-07-29T03:15:29;1.58;;;1.33;;
46391;SDS011;32098;49.448;7.904;2023-07-29T03:17:56;1.45;;;1.35;;
46391;SDS011;32098;49.448;7.904;2023-07-29T03:20:22;1.63;;;1.40;;
46391;SDS011;32098;49.448;7.904;2023-07-29T03:22:49;2.40;;;1.70;;
46391;SDS011;32098;49.448;7.904;2023-07-29T03:25:15;1.83;;;1.60;;
46391;SDS011;32098;49.448;7.904;2023-07-29T03:27:42;3.95;;;1.70;;
46391;SDS011;32098;49.448;7.904;2023-07-29T03:30:09;2.28;;;1.50;;
46391;SDS011;32098;49.448;7.904;2023-07-29T03:32:37;1.67;;;1.58;;
46391;SDS011;32098;49.448;7.904;2023-07-29T03:35:07;1.88;;;1.50;;
46391;SDS011;32098;49.448;7.904;2023-07-29T03:37:34;2.30;;;1.30;;
46391;SDS011;32098;49.448;7.904;2023-07-29T03:40:00;1.70;;;1.42;;
46391;SDS011;32098;49.448;7.904;2023-07-29T03:42:30;3.10;;;1.73;;
46391;SDS011;32098;49.448;7.904;2023-07-29T03:44:57;2.03;;;1.45;;
46391;SDS011;32098;49.448;7.904;2023-07-29T03:47:23;1.58;;;1.30;;
46391;SDS011;32098;49.448;7.904;2023-07-29T03:49:51;1.42;;;1.30;;
46391;SDS011;32098;49.448;7.904;2023-07-29T03:52:20;1.92;;;1.55;;
46391;SDS011;32098;49.448;7.904;2023-07-29T03:54:47;2.80;;;1.48;;
46391;SDS011;32098;49.448;7.904;2023-07-29T03:57:13;1.60;;;1.50;;
46391;SDS011;32098;49.448;7.904;2023-07-29T03:59:40;1.20;;;1.10;;
46391;SDS011;32098;49.448;7.904;2023-07-29T04:02:07;1.42;;;1.33;;
46391;SDS011;32098;49.448;7.904;2023-07-29T04:04:33;1.33;;;1.20;;
46391;SDS011;32098;49.448;7.904;2023-07-29T04:07:00;1.83;;;1.40;;
46391;SDS011;32098;49.448;7.904;2023-07-29T04:09:27;4.50;;;1.75;;
46391;SDS011;32098;49.448;7.904;2023-07-29T04:11:53;2.65;;;1.60;;
46391;SDS011;32098;49.448;7.904;2023-07-29T04:14:20;2.17;;;1.40;;
46391;SDS011;32098;49.448;7.904;2023-07-29T04:16:46;2.17;;;1.45;;
46391;SDS011;32098;49.448;7.904;2023-07-29T04:19:15;2.10;;;1.40;;
46391;SDS011;32098;49.448;7.904;2023-07-29T04:21:42;1.88;;;1.60;;
46391;SDS011;32098;49.448;7.904;2023-07-29T04:24:09;3.00;;;1.38;;
46391;SDS011;32098;49.448;7.904;2023-07-29T04:26:35;2.17;;;1.70;;
46391;SDS011;32098;49.448;7.904;2023-07-29T04:29:02;3.83;;;2.10;;
46391;SDS011;32098;49.448;7.904;2023-07-29T04:31:29;3.05;;;1.85;;
46391;SDS011;32098;49.448;7.904;2023-07-29T04:33:55;1.73;;;1.63;;
46391;SDS011;32098;49.448;7.904;2023-07-29T04:36:22;1.52;;;1.42;;
46391;SDS011;32098;49.448;7.904;2023-07-29T04:38:49;1.95;;;1.67;;
46391;SDS011;32098;49.448;7.904;2023-07-29T04:41:15;1.67;;;1.58;;
46391;SDS011;32098;49.448;7.904;2023-07-29T04:43:42;3.45;;;1.73;;
46391;SDS011;32098;49.448;7.904;2023-07-29T04:46:08;3.55;;;1.70;;
46391;SDS011;32098;49.448;7.904;2023-07-29T04:48:35;2.28;;;1.65;;
46391;SDS011;32098;49.448;7.904;2023-07-29T04:51:02;2.08;;;1.60;;
46391;SDS011;32098;49.448;7.904;2023-07-29T04:53:29;2.67;;;1.58;;
46391;SDS011;32098;49.448;7.904;2023-07-29T04:55:55;2.38;;;1.23;;
46391;SDS011;32098;49.448;7.904;2023-07-29T04:58:22;2.78;;;1.80;;
46391;SDS011;32098;49.448;7.904;2023-07-29T05:00:48;2.80;;;1.70;;
46391;SDS011;32098;49.448;7.904;2023-07-29T05:03:15;2.80;;;1.77;;
46391;SDS011;32098;49.448;7.904;2023-07-29T05:05:42;3.92;;;1.73;;
46391;SDS011;32098;49.448;7.904;2023-07-29T05:08:09;3.47;;;1.70;;
46391;SDS011;32098;49.448;7.904;2023-07-29T05:10:35;4.10;;;1.65;;
46391;SDS011;32098;49.448;7.904;2023-07-29T05:13:02;2.38;;;2.03;;
46391;SDS011;32098;49.448;7.904;2023-07-29T05:15:28;2.13;;;2.00;;
46391;SDS011;32098;49.448;7.904;2023-07-29T05:17:55;2.35;;;1.83;;
46391;SDS011;32098;49.448;7.904;2023-07-29T05:20:22;2.40;;;1.80;;
46391;SDS011;32098;49.448;7.904;2023-07-29T05:22:49;3.70;;;1.92;;
46391;SDS011;32098;49.448;7.904;2023-07-29T05:25:15;2.35;;;1.85;;
46391;SDS011;32098;49.448;7.904;2023-07-29T05:27:42;2.45;;;2.10;;
46391;SDS011;32098;49.448;7.904;2023-07-29T05:30:09;2.40;;;2.20;;
46391;SDS011;32098;49.448;7.904;2023-07-29T05:32:35;3.65;;;2.35;;
46391;SDS011;32098;49.448;7.904;2023-07-29T05:35:02;3.83;;;2.30;;
46391;SDS011;32098;49.448;7.904;2023-07-29T05:37:30;2.45;;;2.25;;
46391;SDS011;32098;49.448;7.904;2023-07-29T05:39:56;2.65;;;2.45;;
46391;SDS011;32098;49.448;7.904;2023-07-29T05:42:23;3.15;;;2.90;;
46391;SDS011;32098;49.448;7.904;2023-07-29T05:44:50;2.95;;;2.75;;
46391;SDS011;32098;49.448;7.904;2023-07-29T05:47:19;3.10;;;2.80;;
46391;SDS011;32098;49.448;7.904;2023-07-29T05:49:46;3.60;;;3.28;;
46391;SDS011;32098;49.448;7.904;2023-07-29T05:52:13;3.70;;;3.15;;
46391;SDS011;32098;49.448;7.904;2023-07-29T05:54:40;3.97;;;3.15;;
46391;SDS011;32098;49.448;7.904;2023-07-29T05:57:07;3.53;;;3.20;;
46391;SDS011;32098;49.448;7.904;2023-07-29T05:59:33;4.05;;;3.00;;
46391;SDS011;32098;49.448;7.904;2023-07-29T06:02:00;3.20;;;3.00;;
46391;SDS011;32098;49.448;7.904;2023-07-29T06:04:26;3.47;;;3.00;;
46391;SDS011;32098;49.448;7.904;2023-07-29T06:06:53;3.50;;;3.20;;
46391;SDS011;32098;49.448;7.904;2023-07-29T06:09:22;5.90;;;3.10;;
46391;SDS011;32098;49.448;7.904;2023-07-29T06:11:49;3.08;;;2.88;;
46391;SDS011;32098;49.448;7.904;2023-07-29T06:14:17;2.83;;;2.63;;
46391;SDS011;32098;49.448;7.904;2023-07-29T06:16:43;2.90;;;2.70;;
46391;SDS011;32098;49.448;7.904;2023-07-29T06:19:10;2.70;;;2.50;;
46391;SDS011;32098;49.448;7.904;2023-07-29T06:21:36;4.22;;;2.58;;
46391;SDS011;32098;49.448;7.904;2023-07-29T06:24:03;3.67;;;2.60;;
46391;SDS011;32098;49.448;7.904;2023-07-29T06:26:30;3.30;;;2.13;;
46391;SDS011;32098;49.448;7.904;2023-07-29T06:28:56;2.30;;;2.13;;
46391;SDS011;32098;49.448;7.904;2023-07-29T06:31:23;3.15;;;2.17;;
46391;SDS011;32098;49.448;7.904;2023-07-29T06:33:50;2.53;;;2.33;;
46391;SDS011;32098;49.448;7.904;2023-07-29T06:36:17;2.70;;;2.50;;
46391;SDS011;32098;49.448;7.904;2023-07-29T06:38:44;2.75;;;2.15;;
46391;SDS011;32098;49.448;7.904;2023-07-29T06:41:10;3.80;;;2.30;;
46391;SDS011;32098;49.448;7.904;2023-07-29T06:43:41;3.45;;;2.22;;
46391;SDS011;32098;49.448;7.904;2023-07-29T06:46:07;2.42;;;2.22;;
46391;SDS011;32098;49.448;7.904;2023-07-29T06:48:34;3.05;;;2.25;;
46391;SDS011;32098;49.448;7.904;2023-07-29T06:51:00;2.20;;;2.10;;
46391;SDS011;32098;49.448;7.904;2023-07-29T06:53:28;2.42;;;2.22;;
46391;SDS011;32098;49.448;7.904;2023-07-29T06:55:56;3.05;;;2.00;;
46391;SDS011;32098;49.448;7.904;2023-07-29T06:58:23;3.25;;;2.10;;
46391;SDS011;32098;49.448;7.904;2023-07-29T07:00:49;2.25;;;2.05;;
46391;SDS011;32098;49.448;7.904;2023-07-29T07:03:16;1.80;;;1.70;;
46391;SDS011;32098;49.448;7.904;2023-07-29T07:05:42;3.05;;;2.00;;
46391;SDS011;32098;49.448;7.904;2023-07-29T07:08:09;1.95;;;1.85;;
46391;SDS011;32098;49.448;7.904;2023-07-29T07:10:35;2.63;;;1.98;;
46391;SDS011;32098;49.448;7.904;2023-07-29T07:13:02;2.00;;;1.90;;
46391;SDS011;32098;49.448;7.904;2023-07-29T07:15:28;2.13;;;1.92;;
46391;SDS011;32098;49.448;7.904;2023-07-29T07:17:55;3.40;;;2.10;;
46391;SDS011;32098;49.448;7.904;2023-07-29T07:20:22;2.15;;;1.92;;
46391;SDS011;32098;49.448;7.904;2023-07-29T07:22:48;7.35;;;1.40;;
46391;SDS011;32098;49.448;7.904;2023-07-29T07:25:15;5.03;;;1.33;;
46391;SDS011;32098;49.448;7.904;2023-07-29T07:27:41;7.63;;;1.35;;
46391;SDS011;32098;49.448;7.904;2023-07-29T07:30:08;1.50;;;1.02;;
46391;SDS011;32098;49.448;7.904;2023-07-29T07:32:35;1.38;;;1.00;;
46391;SDS011;32098;49.448;7.904;2023-07-29T07:35:01;5.22;;;1.23;;
46391;SDS011;32098;49.448;7.904;2023-07-29T07:37:28;1.00;;;0.90;;
46391;SDS011;32098;49.448;7.904;2023-07-29T07:39:54;3.15;;;1.50;;
46391;SDS011;32098;49.448;7.904;2023-07-29T07:42:21;4.00;;;1.17;;
46391;SDS011;32098;49.448;7.904;2023-07-29T07:44:47;2.25;;;0.82;;
46391;SDS011;32098;49.448;7.904;2023-07-29T07:47:14;0.95;;;0.95;;
46391;SDS011;32098;49.448;7.904;2023-07-29T07:49:40;2.25;;;0.90;;
46391;SDS011;32098;49.448;7.904;2023-07-29T07:52:07;1.30;;;0.70;;
46391;SDS011;32098;49.448;7.904;2023-07-29T07:54:33;3.22;;;0.70;;
46391;SDS011;32098;49.448;7.904;2023-07-29T07:57:00;1.30;;;0.70;;
46391;SDS011;32098;49.448;7.904;2023-07-29T07:59:26;1.65;;;0.90;;
46391;SDS011;32098;49.448;7.904;2023-07-29T08:01:53;2.63;;;1.10;;
46391;SDS011;32098;49.448;7.904;2023-07-29T08:04:19;3.45;;;1.20;;
46391;SDS011;32098;49.448;7.904;2023-07-29T08:06:46;7.10;;;1.08;;
46391;SDS011;32098;49.448;7.904;2023-07-29T08:09:12;2.83;;;1.00;;
46391;SDS011;32098;49.448;7.904;2023-07-29T08:11:39;1.65;;;1.10;;
46391;SDS011;32098;49.448;7.904;2023-07-29T08:14:06;3.63;;;1.42;;
46391;SDS011;32098;49.448;7.904;2023-07-29T08:16:32;2.47;;;1.13;;
46391;SDS011;32098;49.448;7.904;2023-07-29T08:18:59;2.72;;;1.05;;
46391;SDS011;32098;49.448;7.904;2023-07-29T08:21:26;4.35;;;1.10;;
46391;SDS011;32098;49.448;7.904;2023-07-29T08:23:53;3.67;;;1.20;;
46391;SDS011;32098;49.448;7.904;2023-07-29T08:26:19;1.30;;;1.00;;
46391;SDS011;32098;49.448;7.904;2023-07-29T08:28:48;1.38;;;1.27;;
46391;SDS011;32098;49.448;7.904;2023-07-29T08:31:14;2.45;;;1.05;;
46391;SDS011;32098;49.448;7.904;2023-07-29T08:33:41;1.77;;;1.20;;
46391;SDS011;32098;49.448;7.904;2023-07-29T08:36:08;1.85;;;1.20;;
46391;SDS011;32098;49.448;7.904;2023-07-29T08:38:34;3.38;;;1.48;;
46391;SDS011;32098;49.448;7.904;2023-07-29T08:41:16;3.22;;;1.08;;
46391;SDS011;32098;49.448;7.904;2023-07-29T08:46:39;2.17;;;1.27;;
46391;SDS011;32098;49.448;7.904;2023-07-29T08:49:07;2.20;;;1.05;;
46391;SDS011;32098;49.448;7.904;2023-07-29T08:51:34;2.00;;;1.20;;
46391;SDS011;32098;49.448;7.904;2023-07-29T08:54:01;2.33;;;1.40;;
46391;SDS011;32098;49.448;7.904;2023-07-29T08:56:27;1.10;;;1.00;;
46391;SDS011;32098;49.448;7.904;2023-07-29T08:58:56;1.27;;;1.10;;
46391;SDS011;32098;49.448;7.904;2023-07-29T09:01:23;1.40;;;1.20;;
46391;SDS011;32098;49.448;7.904;2023-07-29T09:03:50;2.08;;;1.40;;
46391;SDS011;32098;49.448;7.904;2023-07-29T09:06:17;1.13;;;0.95;;
46391;SDS011;32098;49.448;7.904;2023-07-29T09:08:44;1.88;;;1.30;;
46391;SDS011;32098;49.448;7.904;2023-07-29T09:11:13;1.75;;;1.10;;
46391;SDS011;32098;49.448;7.904;2023-07-29T09:13:40;2.40;;;1.52;;
46391;SDS011;32098;49.448;7.904;2023-07-29T09:16:07;2.08;;;1.27;;
46391;SDS011;32098;49.448;7.904;2023-07-29T09:18:34;1.23;;;1.10;;
46391;SDS011;32098;49.448;7.904;2023-07-29T09:21:01;2.15;;;1.20;;
46391;SDS011;32098;49.448;7.904;2023-07-29T09:23:28;1.63;;;1.25;;
46391;SDS011;32098;49.448;7.904;2023-07-29T09:26:01;2.47;;;1.15;;
46391;SDS011;32098;49.448;7.904;2023-07-29T09:28:32;1.40;;;1.30;;
46391;SDS011;32098;49.448;7.904;2023-07-29T09:31:00;2.65;;;1.33;;
46391;SDS011;32098;49.448;7.904;2023-07-29T09:33:27;1.98;;;1.30;;
46391;SDS011;32098;49.448;7.904;2023-07-29T09:35:53;1.30;;;1.20;;
46391;SDS011;32098;49.448;7.904;2023-07-29T09:38:25;2.75;;;1.40;;
46391;SDS011;32098;49.448;7.904;2023-07-29T09:40:56;3.42;;;1.42;;
46391;SDS011;32098;49.448;7.904;2023-07-29T09:43:30;2.65;;;1.50;;
46391;SDS011;32098;49.448;7.904;2023-07-29T09:46:01;1.92;;;1.40;;
46391;SDS011;32098;49.448;7.904;2023-07-29T09:48:35;1.50;;;1.40;;
46391;SDS011;32098;49.448;7.904;2023-07-29T09:51:12;3.42;;;1.45;;
46391;SDS011;32098;49.448;7.904;2023-07-29T09:53:42;1.58;;;1.30;;
46391;SDS011;32098;49.448;7.904;2023-07-29T09:56:15;3.20;;;1.35;;
46391;SDS011;32098;49.448;7.904;2023-07-29T09:58:43;2.65;;;1.58;;
46391;SDS011;32098;49.448;7.904;2023-07-29T10:01:11;3.20;;;1.52;;
46391;SDS011;32098;49.448;7.904;2023-07-29T10:03:38;1.35;;;1.25;;
46391;SDS011;32098;49.448;7.904;2023-07-29T10:06:05;2.88;;;1.40;;
46391;SDS011;32098;49.448;7.904;2023-07-29T10:08:33;2.15;;;1.40;;
46391;SDS011;32098;49.448;7.904;2023-07-29T10:11:06;1.23;;;1.13;;
46391;SDS011;32098;49.448;7.904;2023-07-29T10:13:34;1.50;;;1.35;;
46391;SDS011;32098;49.448;7.904;2023-07-29T10:16:02;2.47;;;1.40;;
46391;SDS011;32098;49.448;7.904;2023-07-29T10:18:29;1.27;;;1.17;;
46391;SDS011;32098;49.448;7.904;2023-07-29T10:20:59;2.10;;;1.38;;
46391;SDS011;32098;49.448;7.904;2023-07-29T10:23:27;3.17;;;1.27;;
46391;SDS011;32098;49.448;7.904;2023-07-29T10:26:05;4.18;;;1.23;;
46391;SDS011;32098;49.448;7.904;2023-07-29T10:28:37;1.48;;;1.38;;
46391;SDS011;32098;49.448;7.904;2023-07-29T10:31:06;1.90;;;1.20;;
46391;SDS011;32098;49.448;7.904;2023-07-29T10:33:33;1.48;;;1.20;;
46391;SDS011;32098;49.448;7.904;2023-07-29T10:36:01;1.90;;;1.50;;
46391;SDS011;32098;49.448;7.904;2023-07-29T10:38:29;2.33;;;1.40;;
46391;SDS011;32098;49.448;7.904;2023-07-29T10:40:56;4.50;;;1.42;;
46391;SDS011;32098;49.448;7.904;2023-07-29T10:43:26;2.00;;;1.50;;
46391;SDS011;32098;49.448;7.904;2023-07-29T10:45:55;2.35;;;1.40;;
46391;SDS011;32098;49.448;7.904;2023-07-29T10:48:41;1.60;;;1.50;;
46391;SDS011;32098;49.448;7.904;2023-07-29T10:51:25;3.10;;;1.48;;
46391;SDS011;32098;49.448;7.904;2023-07-29T10:53:57;3.10;;;1.20;;
46391;SDS011;32098;49.448;7.904;2023-07-29T10:56:28;1.40;;;1.30;;
46391;SDS011;32098;49.448;7.904;2023-07-29T11:01:42;2.22;;;1.42;;
46391;SDS011;32098;49.448;7.904;2023-07-29T11:10:08;2.35;;;1.27;;
46391;SDS011;32098;49.448;7.904;2023-07-29T11:12:35;1.40;;;1.20;;
46391;SDS011;32098;49.448;7.904;2023-07-29T11:17:57;1.75;;;1.38;;
46391;SDS011;32098;49.448;7.904;2023-07-29T11:20:29;1.35;;;1.20;;
46391;SDS011;32098;49.448;7.904;2023-07-29T11:22:57;1.48;;;1.35;;
46391;SDS011;32098;49.448;7.904;2023-07-29T11:25:26;2.40;;;1.50;;
46391;SDS011;32098;49.448;7.904;2023-07-29T11:27:54;1.73;;;1.50;;
46391;SDS011;32098;49.448;7.904;2023-07-29T11:30:22;3.17;;;1.35;;
46391;SDS011;32098;49.448;7.904;2023-07-29T11:32:59;4.00;;;1.30;;
46391;SDS011;32098;49.448;7.904;2023-07-29T11:35:26;1.20;;;1.10;;
46391;SDS011;32098;49.448;7.904;2023-07-29T11:37:54;1.25;;;1.17;;
46391;SDS011;32098;49.448;7.904;2023-07-29T11:40:23;1.80;;;1.27;;
46391;SDS011;32098;49.448;7.904;2023-07-29T11:42:50;1.30;;;1.20;;
46391;SDS011;32098;49.448;7.904;2023-07-29T11:45:18;1.20;;;1.10;;
46391;SDS011;32098;49.448;7.904;2023-07-29T11:47:46;1.80;;;1.35;;
46391;SDS011;32098;49.448;7.904;2023-07-29T11:50:13;1.60;;;1.40;;
46391;SDS011;32098;49.448;7.904;2023-07-29T11:52:41;1.63;;;1.40;;
46391;SDS011;32098;49.448;7.904;2023-07-29T11:55:09;2.17;;;1.30;;
46391;SDS011;32098;49.448;7.904;2023-07-29T11:57:36;1.20;;;1.00;;
46391;SDS011;32098;49.448;7.904;2023-07-29T12:00:05;1.60;;;1.10;;
46391;SDS011;32098;49.448;7.904;2023-07-29T12:02:36;2.40;;;1.20;;
46391;SDS011;32098;49.448;7.904;2023-07-29T12:05:06;2.45;;;1.30;;
46391;SDS011;32098;49.448;7.904;2023-07-29T12:07:34;2.22;;;1.30;;
46391;SDS011;32098;49.448;7.904;2023-07-29T12:10:02;1.50;;;1.40;;
46391;SDS011;32098;49.448;7.904;2023-07-29T12:12:29;1.17;;;1.08;;
46391;SDS011;32098;49.448;7.904;2023-07-29T12:14:56;4.20;;;1.40;;
46391;SDS011;32098;49.448;7.904;2023-07-29T12:17:23;1.50;;;1.40;;
46391;SDS011;32098;49.448;7.904;2023-07-29T12:19:50;1.85;;;1.20;;
46391;SDS011;32098;49.448;7.904;2023-07-29T12:22:20;2.15;;;1.20;;
46391;SDS011;32098;49.448;7.904;2023-07-29T12:24:47;3.03;;;1.20;;
46391;SDS011;32098;49.448;7.904;2023-07-29T12:27:14;2.05;;;1.30;;
46391;SDS011;32098;49.448;7.904;2023-07-29T12:29:42;2.42;;;1.27;;
46391;SDS011;32098;49.448;7.904;2023-07-29T12:32:10;1.45;;;1.35;;
46391;SDS011;32098;49.448;7.904;2023-07-29T12:34:37;1.42;;;1.30;;
46391;SDS011;32098;49.448;7.904;2023-07-29T12:37:05;1.35;;;1.17;;
46391;SDS011;32098;49.448;7.904;2023-07-29T12:39:34;2.50;;;1.58;;
46391;SDS011;32098;49.448;7.904;2023-07-29T12:42:02;1.48;;;1.20;;
46391;SDS011;32098;49.448;7.904;2023-07-29T12:44:34;2.70;;;1.08;;
46391;SDS011;32098;49.448;7.904;2023-07-29T12:47:02;1.42;;;1.33;;
46391;SDS011;32098;49.448;7.904;2023-07-29T12:49:30;1.45;;;1.35;;
46391;SDS011;32098;49.448;7.904;2023-07-29T12:51:58;2.78;;;1.50;;
46391;SDS011;32098;49.448;7.904;2023-07-29T12:54:25;1.65;;;1.40;;
46391;SDS011;32098;49.448;7.904;2023-07-29T12:56:52;1.50;;;1.40;;
46391;SDS011;32098;49.448;7.904;2023-07-29T12:59:18;1.73;;;1.33;;
46391;SDS011;32098;49.448;7.904;2023-07-29T13:01:45;2.17;;;1.20;;
46391;SDS011;32098;49.448;7.904;2023-07-29T13:04:11;1.45;;;1.35;;
46391;SDS011;32098;49.448;7.904;2023-07-29T13:06:38;2.83;;;1.23;;
46391;SDS011;32098;49.448;7.904;2023-07-29T13:09:05;1.50;;;1.40;;
46391;SDS011;32098;49.448;7.904;2023-07-29T13:11:32;1.92;;;1.23;;
46391;SDS011;32098;49.448;7.904;2023-07-29T13:13:59;2.42;;;1.20;;
46391;SDS011;32098;49.448;7.904;2023-07-29T13:16:30;2.65;;;1.40;;
46391;SDS011;32098;49.448;7.904;2023-07-29T13:18:57;2.25;;;1.23;;
46391;SDS011;32098;49.448;7.904;2023-07-29T13:21:23;2.53;;;1.63;;
46391;SDS011;32098;49.448;7.904;2023-07-29T13:23:50;1.52;;;1.33;;
46391;SDS011;32098;49.448;7.904;2023-07-29T13:26:17;1.52;;;1.40;;
46391;SDS011;32098;49.448;7.904;2023-07-29T13:28:44;1.15;;;1.05;;
46391;SDS011;32098;49.448;7.904;2023-07-29T13:31:11;3.67;;;1.45;;
46391;SDS011;32098;49.448;7.904;2023-07-29T13:33:37;1.65;;;1.10;;
46391;SDS011;32098;49.448;7.904;2023-07-29T13:36:04;1.90;;;1.40;;
46391;SDS011;32098;49.448;7.904;2023-07-29T13:38:31;1.60;;;1.30;;
46391;SDS011;32098;49.448;7.904;2023-07-29T13:40:58;2.22;;;1.27;;
46391;SDS011;32098;49.448;7.904;2023-07-29T13:43:24;1.75;;;1.40;;
46391;SDS011;32098;49.448;7.904;2023-07-29T13:45:51;3.83;;;1.30;;
46391;SDS011;32098;49.448;7.904;2023-07-29T13:48:18;2.15;;;1.23;;
46391;SDS011;32098;49.448;7.904;2023-07-29T13:50:45;1.13;;;1.02;;
46391;SDS011;32098;49.448;7.904;2023-07-29T13:53:12;1.38;;;1.13;;
46391;SDS011;32098;49.448;7.904;2023-07-29T13:55:39;1.35;;;1.20;;
46391;SDS011;32098;49.448;7.904;2023-07-29T13:58:05;2.63;;;1.50;;
46391;SDS011;32098;49.448;7.904;2023-07-29T14:00:32;1.80;;;1.23;;
46391;SDS011;32098;49.448;7.904;2023-07-29T14:02:59;3.35;;;1.52;;
46391;SDS011;32098;49.448;7.904;2023-07-29T14:05:25;3.15;;;1.40;;
46391;SDS011;32098;49.448;7.904;2023-07-29T14:07:52;2.92;;;1.45;;
46391;SDS011;32098;49.448;7.904;2023-07-29T14:10:18;2.40;;;1.40;;
46391;SDS011;32098;49.448;7.904;2023-07-29T14:12:45;1.50;;;1.40;;
46391;SDS011;32098;49.448;7.904;2023-07-29T14:15:11;2.30;;;1.48;;
46391;SDS011;32098;49.448;7.904;2023-07-29T14:17:38;1.20;;;1.13;;
46391;SDS011;32098;49.448;7.904;2023-07-29T14:20:05;2.58;;;1.60;;
46391;SDS011;32098;49.448;7.904;2023-07-29T14:22:32;3.13;;;1.70;;
46391;SDS011;32098;49.448;7.904;2023-07-29T14:24:59;2.13;;;1.42;;
46391;SDS011;32098;49.448;7.904;2023-07-29T14:27:26;1.52;;;1.30;;
46391;SDS011;32098;49.448;7.904;2023-07-29T14:29:53;2.75;;;1.52;;
46391;SDS011;32098;49.448;7.904;2023-07-29T14:32:20;1.65;;;1.50;;
46391;SDS011;32098;49.448;7.904;2023-07-29T14:34:48;1.73;;;1.52;;
46391;SDS011;32098;49.448;7.904;2023-07-29T14:37:15;1.27;;;1.17;;
46391;SDS011;32098;49.448;7.904;2023-07-29T14:39:42;2.15;;;1.67;;
46391;SDS011;32098;49.448;7.904;2023-07-29T14:42:08;1.77;;;1.38;;
46391;SDS011;32098;49.448;7.904;2023-07-29T14:44:35;1.60;;;1.50;;
46391;SDS011;32098;49.448;7.904;2023-07-29T14:47:01;1.33;;;1.23;;
46391;SDS011;32098;49.448;7.904;2023-07-29T14:49:28;1.50;;;1.33;;
46391;SDS011;32098;49.448;7.904;2023-07-29T14:51:55;2.22;;;1.80;;
46391;SDS011;32098;49.448;7.904;2023-07-29T14:54:21;1.83;;;1.35;;
46391;SDS011;32098;49.448;7.904;2023-07-29T14:56:48;2.05;;;1.63;;
46391;SDS011;32098;49.448;7.904;2023-07-29T14:59:14;2.20;;;1.92;;
46391;SDS011;32098;49.448;7.904;2023-07-29T15:01:41;2.97;;;1.42;;
46391;SDS011;32098;49.448;7.904;2023-07-29T15:04:07;2.65;;;1.38;;
46391;SDS011;32098;49.448;7.904;2023-07-29T15:06:34;4.10;;;1.63;;
46391;SDS011;32098;49.448;7.904;2023-07-29T15:09:01;1.80;;;1.42;;